TimeCST,TemperatureF,Dew PointF,Humidity,Sea Level PressureIn,VisibilityMPH,Wind Direction,Wind SpeedMPH,Gust SpeedMPH,PrecipitationIn,Events,Conditions,WindDirDegrees,DateUTC
12:53 AM,39.9,30.0,68,30.43,10.0,North,6.9,-,N/A,,Mostly Cloudy,360,2013-01-04 06:53:00
1:53 AM,39.9,30.9,70,30.42,10.0,North,8.1,-,N/A,,Mostly Cloudy,360,2013-01-04 07:53:00
2:53 AM,39.9,28.9,65,30.45,10.0,NNW,4.6,-,N/A,,Overcast,330,2013-01-04 08:53:00
3:53 AM,41.0,28.0,60,30.47,10.0,NNW,3.5,-,N/A,,Overcast,330,2013-01-04 09:53:00
4:53 AM,39.9,28.0,63,30.48,10.0,WNW,3.5,-,N/A,,Overcast,290,2013-01-04 10:53:00
5:53 AM,39.9,28.0,63,30.48,10.0,Calm,Calm,-,N/A,,Overcast,0,2013-01-04 11:53:00
6:53 AM,39.2,28.4,65,30.49,10.0,West,4.6,-,N/A,,Overcast,260,2013-01-04 12:53:00
7:53 AM,41.0,28.0,60,30.48,10.0,NW,6.9,-,N/A,,Overcast,320,2013-01-04 13:53:00
8:53 AM,41.0,28.9,62,30.50,10.0,North,5.8,-,N/A,,Overcast,350,2013-01-04 14:53:00
9:53 AM,42.1,30.0,62,30.52,10.0,Calm,Calm,-,N/A,,Overcast,0,2013-01-04 15:53:00
10:53 AM,43.0,30.9,62,30.52,10.0,North,4.6,-,N/A,,Overcast,10,2013-01-04 16:53:00
11:53 AM,45.0,30.9,58,30.49,10.0,NNE,4.6,-,N/A,,Overcast,30,2013-01-04 17:53:00
12:53 PM,46.0,30.0,54,30.45,10.0,Calm,Calm,-,N/A,,Overcast,0,2013-01-04 18:53:00
1:53 PM,46.9,30.0,52,30.42,10.0,Calm,Calm,-,N/A,,Mostly Cloudy,0,2013-01-04 19:53:00
2:53 PM,48.9,28.9,46,30.40,10.0,North,3.5,-,N/A,,Mostly Cloudy,360,2013-01-04 20:53:00
3:53 PM,50.0,28.9,44,30.39,10.0,Variable,4.6,-,N/A,,Mostly Cloudy,0,2013-01-04 21:53:00
4:53 PM,48.0,28.0,46,30.38,10.0,Calm,Calm,-,N/A,,Mostly Cloudy,0,2013-01-04 22:53:00
5:53 PM,46.0,30.0,54,30.38,10.0,ENE,4.6,-,N/A,,Overcast,60,2013-01-04 23:53:00
6:53 PM,46.9,28.9,50,30.38,10.0,East,5.8,-,N/A,,Overcast,80,2013-01-05 00:53:00
7:53 PM,46.0,30.0,54,30.39,10.0,East,3.5,-,N/A,,Overcast,80,2013-01-05 01:53:00
8:53 PM,46.0,30.0,54,30.38,10.0,ESE,5.8,-,N/A,,Overcast,120,2013-01-05 02:53:00
9:53 PM,45.0,30.0,56,30.38,10.0,SE,3.5,-,N/A,,Overcast,140,2013-01-05 03:53:00
10:53 PM,46.0,30.0,54,30.37,10.0,South,6.9,-,N/A,,Overcast,170,2013-01-05 04:53:00
11:53 PM,45.0,34.0,65,30.36,10.0,SSW,6.9,-,0.00,,Overcast,200,2013-01-05 05:53:00